createdAt,value
2019-04-25T00:01:01.213Z,98534.73
2019-04-25T00:03:09.668Z,98532.99
2019-04-25T00:05:19.073Z,98530.76
2019-04-25T00:07:27.028Z,98539.78
2019-04-25T00:09:37.585Z,98537.31
2019-04-25T00:11:47.814Z,98536.59
2019-04-25T00:13:55.546Z,98536.81
2019-04-25T00:16:04.108Z,98533.72
2019-04-25T00:18:12.176Z,98536.14
2019-04-25T00:20:21.395Z,98520.94
2019-04-25T00:22:31.694Z,98537.92
2019-04-25T00:24:39.747Z,98530.56
2019-04-25T00:26:49.208Z,98536.18
2019-04-25T00:28:57.195Z,98533.03
2019-04-25T00:31:05.691Z,98529.86
2019-04-25T00:33:13.676Z,98521.43
2019-04-25T00:35:21.761Z,98523.17
2019-04-25T00:37:29.927Z,98508.55
2019-04-25T00:39:37.883Z,98509.11
2019-04-25T00:41:46.418Z,98510.13
2019-04-25T00:43:55.596Z,98518.44
2019-04-25T00:46:03.450Z,98511.19
2019-04-25T00:48:12.260Z,98504.48
2019-04-25T00:50:21.887Z,98502.84
2019-04-25T00:52:31.360Z,98502.13
2019-04-25T00:54:39.367Z,98496.14
2019-04-25T00:56:48.262Z,98508.53
2019-04-25T00:58:56.510Z,98505.05
2019-04-25T01:01:12.080Z,98505.13
2019-04-25T01:03:27.903Z,98501.48
2019-04-25T01:05:35.766Z,98503.82
2019-04-25T01:07:44.360Z,98509.70
2019-04-25T01:09:53.643Z,98506.29
2019-04-25T01:12:04.145Z,98505.00
2019-04-25T01:14:12.037Z,98508.03
2019-04-25T01:16:22.030Z,98508.98
2019-04-25T01:18:31.415Z,98512.63
2019-04-25T01:20:39.533Z,98506.86
2019-04-25T01:22:47.414Z,98512.01
2019-04-25T01:24:56.074Z,98510.27
2019-04-25T01:27:05.906Z,98502.38
2019-04-25T01:29:14.060Z,98508.48
2019-04-25T01:31:24.890Z,98513.13
2019-04-25T01:33:33.368Z,98510.85
2019-04-25T01:35:46.215Z,98508.10
2019-04-25T01:38:03.799Z,98515.41
2019-04-25T01:40:14.500Z,98517.45
2019-04-25T01:42:35.891Z,98520.88
2019-04-25T01:44:45.390Z,98514.71
2019-04-25T01:46:54.466Z,98513.20
2019-04-25T01:49:04.320Z,98511.40
2019-04-25T01:51:14.090Z,98506.41
2019-04-25T01:53:22.102Z,98500.13
2019-04-25T01:55:30.440Z,98500.27
2019-04-25T01:57:38.235Z,98507.47
2019-04-25T01:59:46.310Z,98508.30
2019-04-25T02:01:55.431Z,98502.84
2019-04-25T02:04:04.374Z,98507.27
2019-04-25T02:06:13.663Z,98510.59
2019-04-25T02:08:21.560Z,98516.33
2019-04-25T02:10:30.525Z,98518.58
2019-04-25T02:12:52.785Z,98512.56
2019-04-25T02:15:03.936Z,98519.64
2019-04-25T02:17:11.601Z,98514.87
2019-04-25T02:19:19.414Z,98511.97
2019-04-25T02:21:27.276Z,98510.67
2019-04-25T02:23:35.167Z,98508.38
2019-04-25T02:25:44.272Z,98515.20
2019-04-25T02:27:53.395Z,98515.21
2019-04-25T02:30:03.556Z,98507.26
2019-04-25T02:32:11.494Z,98509.00
2019-04-25T02:34:19.371Z,98504.61
2019-04-25T02:36:27.395Z,98501.76
2019-04-25T02:38:35.485Z,98510.11
2019-04-25T02:40:45.445Z,98510.41
2019-04-25T02:42:55.817Z,98499.59
2019-04-25T02:45:19.408Z,98497.02
2019-04-25T02:47:34.284Z,98498.05
2019-04-25T02:49:44.794Z,98498.79
2019-04-25T02:51:56.194Z,98499.69
2019-04-25T02:54:06.774Z,98494.30
2019-04-25T02:56:27.501Z,98478.95
2019-04-25T02:58:24.297Z,98476.68
2019-04-25T03:00:47.674Z,98490.05
2019-04-25T03:02:44.561Z,98494.44
2019-04-25T03:04:54.529Z,98489.80
2019-04-25T03:07:07.152Z,98489.40
2019-04-25T03:09:15.133Z,98489.34
2019-04-25T03:11:24.298Z,98483.81
2019-04-25T03:13:34.138Z,98485.93
2019-04-25T03:15:41.454Z,98495.82
2019-04-25T03:17:49.315Z,98491.84
2019-04-25T03:20:15.190Z,98483.11
2019-04-25T03:22:31.250Z,98494.29
2019-04-25T03:24:39.083Z,98495.85
2019-04-25T03:26:47.040Z,98495.76
2019-04-25T03:28:54.895Z,98496.93
2019-04-25T03:31:08.697Z,98502.51
2019-04-25T03:33:18.915Z,98491.17
2019-04-25T03:35:23.280Z,98498.56
2019-04-25T03:37:33.035Z,98500.50
2019-04-25T03:39:41.059Z,98501.98
2019-04-25T03:41:48.854Z,98498.05
2019-04-25T03:43:56.674Z,98498.79
2019-04-25T03:46:06.167Z,98499.08
2019-04-25T03:48:14.892Z,98495.53
2019-04-25T03:50:23.297Z,98496.88
2019-04-25T03:52:31.282Z,98497.16
2019-04-25T03:54:39.169Z,98504.80
2019-04-25T03:56:53.437Z,98517.53
2019-04-25T03:58:56.819Z,98516.42
2019-04-25T04:01:06.954Z,98510.66
2019-04-25T04:03:15.290Z,98510.56
2019-04-25T04:05:23.423Z,98500.05
2019-04-25T04:07:33.599Z,98506.91
2019-04-25T04:09:41.414Z,98513.52
2019-04-25T04:11:49.401Z,98508.83
2019-04-25T04:13:57.344Z,98514.52
2019-04-25T04:16:06.433Z,98512.68
2019-04-25T04:18:17.238Z,98502.80
2019-04-25T04:20:38.864Z,98506.71
2019-04-25T04:23:03.434Z,98504.23
2019-04-25T04:25:13.865Z,98501.67
2019-04-25T04:27:23.977Z,98492.63
2019-04-25T04:29:33.144Z,98498.54
2019-04-25T04:31:41.188Z,98499.09
2019-04-25T04:33:48.957Z,98504.16
2019-04-25T04:35:56.844Z,98496.92
2019-04-25T04:38:04.684Z,98496.64
2019-04-25T04:40:14.784Z,98492.25
2019-04-25T04:42:23.756Z,98495.17
2019-04-25T04:44:31.739Z,98491.80
2019-04-25T04:46:39.528Z,98488.86
2019-04-25T04:48:47.364Z,98498.78
2019-04-25T04:50:55.261Z,98495.09
2019-04-25T04:53:03.917Z,98492.27
2019-04-25T04:55:15.588Z,98485.31
2019-04-25T04:57:32.230Z,98490.16
2019-04-25T04:59:33.787Z,98484.67
2019-04-25T05:01:55.796Z,98490.80
2019-04-25T05:04:09.170Z,98494.36
2019-04-25T05:06:19.759Z,98494.74
2019-04-25T05:08:29.328Z,98483.84
2019-04-25T05:10:37.188Z,98487.05
2019-04-25T05:12:45.076Z,98479.89
2019-04-25T05:14:53.700Z,98485.02
2019-04-25T05:17:01.761Z,98490.61
2019-04-25T05:19:09.674Z,98489.42
2019-04-25T05:21:18.252Z,98490.41
2019-04-25T05:23:26.365Z,98490.80
2019-04-25T05:25:34.565Z,98494.45
2019-04-25T05:27:57.783Z,98488.77
2019-04-25T05:29:52.047Z,98488.33
2019-04-25T05:32:00.933Z,98490.61
2019-04-25T05:34:08.754Z,98488.67
2019-04-25T05:36:17.552Z,98485.72
2019-04-25T05:38:26.314Z,98493.06
2019-04-25T05:40:36.837Z,98494.34
2019-04-25T05:42:47.189Z,98487.81
2019-04-25T05:44:56.697Z,98479.44
2019-04-25T05:47:04.793Z,98478.77
2019-04-25T05:49:13.831Z,98477.64
2019-04-25T05:51:23.539Z,98480.37
2019-04-25T05:53:33.262Z,98471.11
2019-04-25T05:55:41.179Z,98466.91
2019-04-25T05:57:50.327Z,98469.86
2019-04-25T05:59:58.258Z,98479.62
2019-04-25T06:02:06.155Z,98476.75
2019-04-25T06:04:15.107Z,98475.98
2019-04-25T06:06:24.763Z,98472.17
2019-04-25T06:08:34.259Z,98464.94
2019-04-25T06:10:45.201Z,98455.34
2019-04-25T06:12:53.618Z,98459.56
2019-04-25T06:15:02.903Z,98458.95
2019-04-25T06:17:15.622Z,98452.37
2019-04-25T06:19:43.406Z,98457.61
2019-04-25T06:21:51.479Z,98457.80
2019-04-25T06:24:06.714Z,98449.74
2019-04-25T06:26:24.806Z,98446.81
2019-04-25T06:28:28.237Z,98451.98
2019-04-25T06:30:36.635Z,98445.89
2019-04-25T06:32:44.913Z,98444.49
2019-04-25T06:34:54.272Z,98456.25
2019-04-25T06:37:04.774Z,98447.09
2019-04-25T06:39:14.183Z,98446.60
2019-04-25T06:41:22.385Z,98453.98
2019-04-25T06:43:30.598Z,98452.89
2019-04-25T06:45:44.139Z,98449.95
2019-04-25T06:48:01.302Z,98446.02
2019-04-25T06:50:09.675Z,98445.18
2019-04-25T06:52:17.512Z,98443.88
2019-04-25T06:54:26.842Z,98445.87
2019-04-25T06:56:35.418Z,98447.80
2019-04-25T06:58:43.993Z,98446.84
2019-04-25T07:00:58.835Z,98445.12
2019-04-25T07:03:01.862Z,98447.78
2019-04-25T07:05:25.628Z,98449.00
2019-04-25T07:07:24.282Z,98448.27
2019-04-25T07:09:34.299Z,98448.94
2019-04-25T07:11:41.556Z,98451.86
2019-04-25T07:13:49.920Z,98448.67
2019-04-25T07:15:57.809Z,98447.48
2019-04-25T07:18:05.997Z,98444.88
2019-04-25T07:20:14.993Z,98446.88
2019-04-25T07:22:23.897Z,98443.45
2019-04-25T07:24:35.194Z,98440.96
2019-04-25T07:26:44.245Z,98443.98
2019-04-25T07:29:11.201Z,98442.63
2019-04-25T07:31:33.547Z,98446.91
2019-04-25T07:33:53.568Z,98447.88
2019-04-25T07:36:04.141Z,98446.60
2019-04-25T07:38:14.006Z,98451.11
2019-04-25T07:40:23.677Z,98453.77
2019-04-25T07:42:34.236Z,98448.69
2019-04-25T07:44:50.583Z,98451.47
2019-04-25T07:46:54.127Z,98458.72
2019-04-25T07:49:03.465Z,98462.36
2019-04-25T07:51:16.172Z,98469.13
2019-04-25T07:53:24.031Z,98465.58
2019-04-25T07:55:33.283Z,98459.95
2019-04-25T07:57:44.109Z,98464.81
2019-04-25T07:59:53.716Z,98462.40
2019-04-25T08:02:03.293Z,98460.52
2019-04-25T08:04:11.595Z,98465.36
2019-04-25T08:06:22.188Z,98462.62
2019-04-25T08:08:29.815Z,98465.21
2019-04-25T08:11:00.992Z,98467.02
2019-04-25T08:13:08.883Z,98459.84
2019-04-25T08:15:28.369Z,98463.91
2019-04-25T08:17:46.449Z,98461.61
2019-04-25T08:19:54.700Z,98456.52
2019-04-25T08:22:03.629Z,98464.06
2019-04-25T08:24:13.578Z,98471.53
2019-04-25T08:26:23.658Z,98475.61
2019-04-25T08:28:33.690Z,98474.66
2019-04-25T08:30:41.876Z,98464.59
2019-04-25T08:32:51.586Z,98460.75
2019-04-25T08:34:59.673Z,98454.75
2019-04-25T08:37:17.573Z,98452.34
2019-04-25T08:39:17.431Z,98452.05
2019-04-25T08:41:25.482Z,98457.09
2019-04-25T08:43:34.831Z,98453.06
2019-04-25T08:45:44.290Z,98453.80
2019-04-25T08:47:53.833Z,98450.58
2019-04-25T08:50:06.336Z,98452.41
2019-04-25T08:52:14.127Z,98451.32
2019-04-25T08:54:35.395Z,98447.13
2019-04-25T08:56:43.992Z,98452.06
2019-04-25T08:59:03.897Z,98447.67
2019-04-25T09:01:09.228Z,98453.44
2019-04-25T09:03:18.841Z,98447.20
2019-04-25T09:05:36.351Z,98453.56
2019-04-25T09:07:45.392Z,98451.30
2019-04-25T09:09:54.563Z,98447.02
2019-04-25T09:12:04.112Z,98442.91
2019-04-25T09:14:13.459Z,98444.97
2019-04-25T09:16:21.352Z,98456.20
2019-04-25T09:18:29.189Z,98445.03
2019-04-25T09:20:39.594Z,98446.83
2019-04-25T09:22:46.714Z,98441.61
2019-04-25T09:24:54.900Z,98438.72
2019-04-25T09:27:03.669Z,98435.16
2019-04-25T09:29:18.966Z,98440.72
2019-04-25T09:31:23.592Z,98434.36
2019-04-25T09:33:31.730Z,98431.99
2019-04-25T09:35:39.834Z,98427.59
2019-04-25T09:37:48.099Z,98427.98
2019-04-25T09:40:06.423Z,98425.63
2019-04-25T09:42:14.380Z,98431.19
2019-04-25T09:44:26.827Z,98431.70
2019-04-25T09:46:37.312Z,98432.51
2019-04-25T09:48:58.944Z,98427.59
2019-04-25T09:51:13.549Z,98428.28
2019-04-25T09:53:25.537Z,98431.22
2019-04-25T09:55:44.087Z,98423.53
2019-04-25T09:58:00.716Z,98429.56
2019-04-25T10:00:26.206Z,98429.22
2019-04-25T10:02:34.029Z,98431.34
2019-04-25T10:04:41.918Z,98428.09
2019-04-25T10:06:50.201Z,98428.27
2019-04-25T10:08:59.084Z,98428.88
2019-04-25T10:11:07.100Z,98429.09
2019-04-25T10:13:14.956Z,98423.05
2019-04-25T10:16:01.761Z,98419.75
2019-04-25T10:18:09.955Z,98419.92
2019-04-25T10:22:26.124Z,98418.13
2019-04-25T10:24:34.211Z,98414.55
2019-04-25T10:26:41.994Z,98421.74
2019-04-25T10:28:49.977Z,98429.44
2019-04-25T10:30:57.983Z,98430.39
2019-04-25T10:33:06.190Z,98419.62
2019-04-25T10:35:15.444Z,98423.37
2019-04-25T10:37:23.370Z,98423.52
2019-04-25T10:39:31.603Z,98421.72
2019-04-25T10:41:40.885Z,98416.86
2019-04-25T10:43:50.402Z,98413.73
2019-04-25T10:45:58.611Z,98411.12
2019-04-25T10:48:06.802Z,98412.92
2019-04-25T10:50:15.488Z,98407.00
2019-04-25T10:52:23.428Z,98415.67
2019-04-25T10:54:31.427Z,98415.36
2019-04-25T10:56:40.110Z,98415.36
2019-04-25T10:58:48.187Z,98410.30
2019-04-25T11:00:56.273Z,98409.16
2019-04-25T11:03:22.185Z,98405.72
2019-04-25T11:05:30.652Z,98404.10
2019-04-25T11:07:38.496Z,98409.66
2019-04-25T11:09:48.009Z,98407.53
2019-04-25T11:11:56.182Z,98403.78
2019-04-25T11:14:07.315Z,98405.72
2019-04-25T11:16:16.545Z,98402.94
2019-04-25T11:18:24.684Z,98400.78
2019-04-25T11:20:33.928Z,98399.16
2019-04-25T11:22:42.377Z,98390.49
2019-04-25T11:24:52.991Z,98398.03
2019-04-25T11:27:01.031Z,98398.84
2019-04-25T11:29:09.056Z,98402.94
2019-04-25T11:31:18.932Z,98396.06
2019-04-25T11:33:26.927Z,98394.24
2019-04-25T11:35:35.237Z,98386.53
2019-04-25T11:37:45.074Z,98391.94
2019-04-25T11:39:56.020Z,98387.14
2019-04-25T11:42:05.351Z,98383.34
2019-04-25T11:44:13.890Z,98374.00
2019-04-25T11:46:22.189Z,98382.66
2019-04-25T11:48:30.223Z,98377.98
2019-04-25T11:50:39.342Z,98382.66
2019-04-25T11:52:47.348Z,98375.22
2019-04-25T11:54:55.761Z,98383.25
2019-04-25T11:57:03.646Z,98383.39
2019-04-25T11:59:13.771Z,98378.66
2019-04-25T12:01:24.325Z,98372.29
2019-04-25T12:03:33.648Z,98373.98
2019-04-25T12:05:42.963Z,98369.86
2019-04-25T12:07:51.437Z,98365.45
2019-04-25T12:09:59.475Z,98365.62
2019-04-25T12:12:07.527Z,98369.80
2019-04-25T12:14:16.560Z,98363.94
2019-04-25T12:16:25.191Z,98366.12
2019-04-25T12:18:33.900Z,98368.61
2019-04-25T12:20:45.869Z,98361.99
2019-04-25T12:23:04.164Z,98358.03
2019-04-25T12:25:04.638Z,98353.04
2019-04-25T12:27:12.799Z,98357.77
2019-04-25T12:29:20.583Z,98358.57
2019-04-25T12:31:28.538Z,98356.13
2019-04-25T12:33:36.852Z,98350.99
2019-04-25T12:35:44.802Z,98349.41
2019-04-25T12:37:54.053Z,98351.30
2019-04-25T12:40:04.390Z,98347.73
2019-04-25T12:42:14.340Z,98350.39
2019-04-25T12:44:29.736Z,98360.06
2019-04-25T12:46:43.631Z,98351.25
2019-04-25T12:48:51.726Z,98344.48
2019-04-25T12:50:59.867Z,98352.92
2019-04-25T12:53:07.953Z,98354.56
2019-04-25T12:55:16.781Z,98349.58
2019-04-25T12:57:25.021Z,98345.67
2019-04-25T12:59:32.906Z,98345.75
2019-04-25T13:01:40.687Z,98339.33
2019-04-25T13:03:48.694Z,98350.53
2019-04-25T13:05:58.415Z,98342.20
2019-04-25T13:08:06.684Z,98342.66
2019-04-25T13:10:15.379Z,98339.03
2019-04-25T13:12:24.067Z,98337.55
2019-04-25T13:14:31.922Z,98342.25
2019-04-25T13:16:40.803Z,98342.89
2019-04-25T13:18:51.168Z,98344.07
2019-04-25T13:20:59.182Z,98338.36
2019-04-25T13:23:08.862Z,98330.31
2019-04-25T13:25:18.687Z,98330.80
2019-04-25T13:27:34.518Z,98328.74
2019-04-25T13:29:46.721Z,98332.61
2019-04-25T13:32:07.542Z,98332.05
2019-04-25T13:34:35.383Z,98328.83
2019-04-25T13:36:32.933Z,98322.88
2019-04-25T13:38:43.645Z,98327.19
2019-04-25T13:40:52.662Z,98324.69
2019-04-25T13:43:00.737Z,98319.73
2019-04-25T13:45:09.031Z,98317.40
2019-04-25T13:47:17.254Z,98325.25
2019-04-25T13:49:25.135Z,98331.00
2019-04-25T13:51:33.289Z,98327.39
2019-04-25T13:53:41.354Z,98321.95
2019-04-25T13:55:49.267Z,98324.02
2019-04-25T13:57:58.357Z,98320.88
2019-04-25T14:00:10.411Z,98319.96
2019-04-25T14:02:20.293Z,98324.43
2019-04-25T14:04:29.493Z,98323.58
2019-04-25T14:06:37.381Z,98327.70
2019-04-25T14:08:45.192Z,98323.84
2019-04-25T14:10:54.291Z,98323.75
2019-04-25T14:13:03.519Z,98322.14
2019-04-25T14:15:13.947Z,98327.17
2019-04-25T14:17:40.232Z,98324.48
2019-04-25T14:19:54.115Z,98321.55
2019-04-25T14:22:04.322Z,98326.01
2019-04-25T14:24:20.195Z,98322.59
2019-04-25T14:26:22.984Z,98327.66
2019-04-25T14:28:31.801Z,98327.47
2019-04-25T14:30:40.613Z,98317.44
2019-04-25T14:32:48.399Z,98322.31
2019-04-25T14:34:56.459Z,98313.17
2019-04-25T14:37:05.461Z,98316.50
2019-04-25T14:39:14.165Z,98314.08
2019-04-25T14:41:22.880Z,98313.72
2019-04-25T14:43:32.071Z,98314.09
2019-04-25T14:45:44.338Z,98319.52
2019-04-25T14:47:49.763Z,98313.45
2019-04-25T14:49:57.648Z,98308.45
2019-04-25T14:52:05.609Z,98311.74
2019-04-25T14:54:19.286Z,98315.03
2019-04-25T14:56:44.005Z,98309.34
2019-04-25T14:58:52.133Z,98312.53
2019-04-25T15:01:00.106Z,98310.48
2019-04-25T15:03:08.461Z,98309.86
2019-04-25T15:05:16.721Z,98311.69
2019-04-25T15:07:24.530Z,98311.15
2019-04-25T15:09:32.578Z,98310.12
2019-04-25T15:11:41.659Z,98303.17
2019-04-25T15:13:50.632Z,98300.44
2019-04-25T15:15:58.429Z,98305.41
2019-04-25T15:18:06.288Z,98300.77
2019-04-25T15:20:14.248Z,98295.42
2019-04-25T15:22:22.133Z,98303.00
2019-04-25T15:24:30.302Z,98306.59
2019-04-25T15:26:40.323Z,98306.98
2019-04-25T15:28:48.046Z,98300.75
2019-04-25T15:30:55.902Z,98304.99
2019-04-25T15:33:07.365Z,98303.38
2019-04-25T15:35:17.905Z,98304.05
2019-04-25T15:37:33.406Z,98300.94
2019-04-25T15:39:48.926Z,98296.52
2019-04-25T15:42:08.735Z,98301.47
2019-04-25T15:44:33.231Z,98302.52
2019-04-25T15:46:43.157Z,98300.04
2019-04-25T15:48:51.112Z,98295.64
2019-04-25T15:50:59.094Z,98301.94
2019-04-25T15:53:08.302Z,98299.30
2019-04-25T15:55:16.653Z,98295.39
2019-04-25T15:57:24.621Z,98299.31
2019-04-25T15:59:33.599Z,98289.99
2019-04-25T16:01:42.573Z,98290.36
2019-04-25T16:03:52.532Z,98289.00
2019-04-25T16:06:01.112Z,98286.94
2019-04-25T16:08:09.257Z,98283.55
2019-04-25T16:10:19.163Z,98288.58
2019-04-25T16:12:31.615Z,98287.56
2019-04-25T16:14:40.119Z,98289.70
2019-04-25T16:16:49.129Z,98285.59
2019-04-25T16:18:57.299Z,98289.73
2019-04-25T16:21:05.433Z,98286.34
2019-04-25T16:23:13.495Z,98291.91
2019-04-25T16:25:21.713Z,98285.80
2019-04-25T16:27:30.398Z,98293.06
2019-04-25T16:29:38.725Z,98287.64
2019-04-25T16:31:46.821Z,98290.47
2019-04-25T16:33:54.701Z,98290.77
2019-04-25T16:36:02.483Z,98289.03
2019-04-25T16:38:12.351Z,98289.89
2019-04-25T16:40:20.314Z,98285.67
2019-04-25T16:42:28.253Z,98286.23
2019-04-25T16:44:36.192Z,98285.58
2019-04-25T16:46:44.977Z,98289.52
2019-04-25T16:49:00.344Z,98288.27
2019-04-25T16:51:08.156Z,98289.89
2019-04-25T16:53:18.643Z,98289.95
2019-04-25T16:55:26.625Z,98290.97
2019-04-25T16:57:34.858Z,98290.34
2019-04-25T16:59:44.018Z,98293.45
2019-04-25T17:01:51.827Z,98299.52
2019-04-25T17:04:03.524Z,98293.68
2019-04-25T17:06:11.467Z,98289.94
2019-04-25T17:08:19.831Z,98295.69
2019-04-25T17:10:29.048Z,98288.52
2019-04-25T17:12:37.067Z,98290.83
2019-04-25T17:15:02.280Z,98298.84
2019-04-25T17:17:23.861Z,98296.09
2019-04-25T17:19:37.066Z,98296.13
2019-04-25T17:21:45.645Z,98300.08
2019-04-25T17:23:54.306Z,98302.66
2019-04-25T17:26:02.735Z,98298.77
2019-04-25T17:28:16.321Z,98302.20
2019-04-25T17:30:24.365Z,98301.75
2019-04-25T17:32:48.564Z,98307.78
2019-04-25T17:35:02.089Z,98298.83
2019-04-25T17:37:14.820Z,98304.55
2019-04-25T17:39:29.461Z,98304.86
2019-04-25T17:41:38.386Z,98301.07
2019-04-25T17:43:46.645Z,98301.06
2019-04-25T17:45:54.740Z,98302.03
2019-04-25T17:48:02.610Z,98303.31
2019-04-25T17:50:11.954Z,98307.84
2019-04-25T17:52:20.818Z,98308.41
2019-04-25T17:54:29.020Z,98312.75
2019-04-25T17:56:37.108Z,98315.47
2019-04-25T17:58:44.907Z,98322.08
2019-04-25T18:00:54.366Z,98313.69
2019-04-25T18:03:02.334Z,98320.76
2019-04-25T18:05:12.183Z,98326.16
2019-04-25T18:07:20.087Z,98326.19
2019-04-25T18:09:28.383Z,98326.56
2019-04-25T18:11:36.713Z,98327.13
2019-04-25T18:13:47.341Z,98327.95
2019-04-25T18:16:12.934Z,98330.77
2019-04-25T18:18:22.437Z,98335.84
2019-04-25T18:20:31.870Z,98337.01
2019-04-25T18:22:47.894Z,98339.12
2019-04-25T18:25:13.238Z,98339.66
2019-04-25T18:27:22.856Z,98344.91
2019-04-25T18:29:30.788Z,98349.59
2019-04-25T18:31:39.592Z,98347.81
2019-04-25T18:33:49.188Z,98353.13
2019-04-25T18:36:03.855Z,98346.35
2019-04-25T18:38:13.632Z,98353.14
2019-04-25T18:40:27.244Z,98348.52
2019-04-25T18:42:46.445Z,98346.97
2019-04-25T18:44:55.403Z,98355.73
2019-04-25T18:47:03.437Z,98347.63
2019-04-25T18:49:12.746Z,98345.78
2019-04-25T18:51:20.761Z,98344.03
2019-04-25T18:53:31.248Z,98346.73
2019-04-25T18:55:57.126Z,98349.58
2019-04-25T18:58:10.599Z,98357.66
2019-04-25T19:00:22.231Z,98356.33
2019-04-25T19:02:46.014Z,98354.89
2019-04-25T19:05:14.478Z,98354.48
2019-04-25T19:07:23.045Z,98357.13
2019-04-25T19:09:31.477Z,98358.52
2019-04-25T19:11:40.862Z,98356.88
2019-04-25T19:13:49.830Z,98355.04
2019-04-25T19:15:57.854Z,98354.79
2019-04-25T19:18:06.121Z,98355.66
2019-04-25T19:20:14.257Z,98359.02
2019-04-25T19:22:22.340Z,98363.17
2019-04-25T19:24:30.321Z,98361.09
2019-04-25T19:26:40.727Z,98354.91
2019-04-25T19:28:47.845Z,98362.48
2019-04-25T19:30:55.785Z,98363.94
2019-04-25T19:33:07.447Z,98364.87
2019-04-25T19:35:14.952Z,98363.37
2019-04-25T19:37:22.738Z,98372.26
2019-04-25T19:39:32.277Z,98373.05
2019-04-25T19:41:42.942Z,98369.56
2019-04-25T19:43:58.327Z,98372.41
2019-04-25T19:46:06.290Z,98372.44
2019-04-25T19:48:14.191Z,98369.55
2019-04-25T19:50:22.085Z,98372.58
2019-04-25T19:52:29.955Z,98370.85
2019-04-25T19:54:38.079Z,98367.82
2019-04-25T19:56:45.951Z,98370.07
2019-04-25T19:58:53.751Z,98368.28
2019-04-25T20:01:01.748Z,98371.00
2019-04-25T20:03:17.126Z,98368.20
2019-04-25T20:05:29.407Z,98367.63
2019-04-25T20:07:43.800Z,98366.56
2019-04-25T20:09:55.897Z,98370.49
2019-04-25T20:12:03.899Z,98367.22
2019-04-25T20:14:12.710Z,98363.36
2019-04-25T20:16:20.516Z,98369.50
2019-04-25T20:18:28.489Z,98375.05
2019-04-25T20:20:36.408Z,98377.27
2019-04-25T20:22:44.859Z,98376.11
2019-04-25T20:24:53.272Z,98373.69
2019-04-25T20:27:01.195Z,98379.45
2019-04-25T20:29:10.258Z,98371.83
2019-04-25T20:31:18.061Z,98373.83
2019-04-25T20:33:26.086Z,98374.97
2019-04-25T20:35:34.256Z,98375.80
2019-04-25T20:37:42.351Z,98379.45
2019-04-25T20:39:51.518Z,98376.16
2019-04-25T20:41:59.438Z,98378.98
2019-04-25T20:44:07.234Z,98372.99
2019-04-25T20:46:15.348Z,98377.94
2019-04-25T20:48:23.546Z,98376.65
2019-04-25T20:50:31.546Z,98378.19
2019-04-25T20:52:39.909Z,98372.31
2019-04-25T20:54:48.844Z,98373.13
2019-04-25T20:56:57.257Z,98378.51
2019-04-25T20:59:05.351Z,98371.00
2019-04-25T21:01:13.150Z,98372.53
2019-04-25T21:03:21.012Z,98371.23
2019-04-25T21:05:28.977Z,98371.94
2019-04-25T21:07:36.871Z,98371.23
2019-04-25T21:09:44.765Z,98375.80
2019-04-25T21:11:53.360Z,98379.20
2019-04-25T21:14:01.377Z,98379.08
2019-04-25T21:16:28.626Z,98378.39
2019-04-25T21:18:38.236Z,98382.97
2019-04-25T21:20:46.017Z,98384.36
2019-04-25T21:22:55.834Z,98382.00
2019-04-25T21:25:05.644Z,98385.07
2019-04-25T21:27:14.048Z,98383.98
2019-04-25T21:29:21.916Z,98381.78
2019-04-25T21:31:29.944Z,98389.73
2019-04-25T21:33:37.732Z,98380.83
2019-04-25T21:35:46.278Z,98386.69
2019-04-25T21:37:55.414Z,98379.30
2019-04-25T21:40:15.003Z,98383.50
2019-04-25T21:42:40.167Z,98390.36
2019-04-25T21:44:48.268Z,98389.73
2019-04-25T21:46:56.335Z,98384.33
2019-04-25T21:49:05.208Z,98384.41
2019-04-25T21:51:31.892Z,98381.72
2019-04-25T21:53:40.366Z,98383.59
2019-04-25T21:55:48.801Z,98386.48
2019-04-25T21:57:58.055Z,98385.19
2019-04-25T22:00:15.671Z,98390.66
2019-04-25T22:02:26.170Z,98387.59
2019-04-25T22:04:38.964Z,98383.58
2019-04-25T22:06:44.468Z,98388.61
2019-04-25T22:08:52.420Z,98386.49
2019-04-25T22:11:01.680Z,98388.23
2019-04-25T22:13:16.191Z,98386.87
2019-04-25T22:15:20.063Z,98386.04
2019-04-25T22:17:29.949Z,98380.42
2019-04-25T22:19:38.176Z,98387.93
2019-04-25T22:21:46.754Z,98377.93
2019-04-25T22:24:06.219Z,98385.81
2019-04-25T22:26:06.182Z,98384.18
2019-04-25T22:28:17.938Z,98376.45
2019-04-25T22:30:26.408Z,98384.44
2019-04-25T22:32:36.523Z,98386.33
2019-04-25T22:34:52.374Z,98388.80
2019-04-25T22:37:00.038Z,98384.09
2019-04-25T22:39:13.837Z,98390.20
2019-04-25T22:41:22.113Z,98386.56
2019-04-25T22:43:32.245Z,98383.16
2019-04-25T22:45:40.815Z,98384.44
2019-04-25T22:47:49.012Z,98381.95
2019-04-25T22:49:56.829Z,98386.75
2019-04-25T22:52:05.334Z,98387.66
2019-04-25T22:54:13.133Z,98390.59
2019-04-25T22:56:21.153Z,98394.30
2019-04-25T22:58:28.972Z,98386.91
2019-04-25T23:00:38.136Z,98385.58
2019-04-25T23:02:48.389Z,98385.55
2019-04-25T23:05:12.926Z,98384.70
2019-04-25T23:07:17.367Z,98379.73
2019-04-25T23:09:25.774Z,98389.83
2019-04-25T23:11:34.118Z,98388.64
2019-04-25T23:13:42.584Z,98384.55
2019-04-25T23:15:50.976Z,98383.58
2019-04-25T23:17:59.746Z,98388.12
2019-04-25T23:20:07.785Z,98383.98
2019-04-25T23:22:15.875Z,98384.55
2019-04-25T23:24:26.544Z,98383.48
2019-04-25T23:26:37.422Z,98379.73
2019-04-25T23:28:47.027Z,98384.61
2019-04-25T23:30:59.684Z,98382.09
2019-04-25T23:33:08.484Z,98391.87
2019-04-25T23:35:27.534Z,98383.75
2019-04-25T23:37:26.560Z,98385.08
2019-04-25T23:39:34.358Z,98386.41
2019-04-25T23:41:42.645Z,98385.23
2019-04-25T23:43:51.868Z,98379.47
2019-04-25T23:46:00.339Z,98382.98
2019-04-25T23:48:08.836Z,98383.99
2019-04-25T23:50:17.793Z,98383.86
2019-04-25T23:52:25.796Z,98378.55
2019-04-25T23:54:33.787Z,98386.92
2019-04-25T23:56:42.231Z,98379.42
2019-04-25T23:58:50.436Z,98378.31
